Date,TemperatureHighF,TemperatureAvgF,TemperatureLowF,DewpointHighF,DewpointAvgF,DewpointLowF,HumidityHigh,HumidityAvg,HumidityLow,PressureMaxIn,PressureMinIn,WindSpeedMaxMPH,WindSpeedAvgMPH,GustSpeedMaxMPH,PrecipitationSumIn
2013-3-1,27,22,13,19,16,10,90,76,63,0.00,40.00,14,8,18,0.00
2013-3-2,31,17,2,18,11,0,93,79,49,0.00,40.00,7,3,9,0.00
2013-3-3,31,24,15,19,15,10,92,71,49,0.00,40.00,17,10,21,0.00
2013-3-4,29,25,22,25,23,14,99,92,63,0.00,40.00,24,14,30,0.00
2013-3-5,29,26,24,28,24,21,99,92,77,0.00,40.00,15,7,26,0.00
2013-3-6,27,19,0,21,16,-4,97,86,70,0.00,40.00,12,6,19,0.00
2013-3-7,29,13,-5,19,8,-9,96,82,65,0.00,40.00,15,6,21,0.00
2013-3-8,38,28,15,32,25,14,99,90,74,0.00,40.00,19,11,24,0.00
2013-3-9,36,34,33,36,34,32,99,99,99,0.00,40.00,19,12,28,0.00
2013-3-10,34,32,29,34,31,28,99,98,93,0.00,40.00,21,14,29,0.01
2013-3-11,29,26,20,28,23,16,99,91,74,0.00,40.00,18,13,27,0.01
2013-3-12,27,24,18,27,19,14,99,82,68,0.00,40.00,24,14,32,0.00
2013-3-13,29,19,11,18,14,9,93,81,53,0.00,40.00,14,8,21,0.00
2013-3-14,40,29,19,30,24,16,99,81,60,0.00,40.00,14,6,21,0.00
2013-3-15,41,34,28,34,33,27,99,94,73,0.00,40.00,12,6,16,0.00
2013-3-16,33,25,16,32,20,10,99,83,68,0.00,40.00,16,10,24,0.00
2013-3-17,31,21,11,27,15,5,90,76,65,0.00,40.00,21,13,27,0.00
2013-3-18,31,22,12,30,19,7,99,86,70,0.00,40.00,28,18,39,0.00
2013-3-19,23,14,8,10,5,1,82,66,51,0.00,40.00,24,18,35,0.00
2013-3-20,20,12,6,5,1,-2,74,61,45,0.00,40.00,23,16,33,0.00
2013-3-21,29,14,0,10,5,-4,84,66,42,0.00,40.00,10,3,14,0.00
2013-3-22,36,20,6,18,11,3,92,68,36,0.00,40.00,7,2,10,0.00
2013-3-23,36,26,14,23,17,12,97,71,48,0.00,40.00,10,4,13,0.00
2013-3-24,32,28,24,27,24,21,99,86,69,0.00,40.00,14,9,22,0.00
2013-3-25,35,29,24,25,20,18,87,70,55,0.00,40.00,16,12,25,0.00
2013-3-26,38,28,19,28,22,18,94,78,51,0.00,40.00,12,6,18,0.00
2013-3-27,42,31,20,28,24,19,99,78,48,0.00,40.00,8,2,12,0.00
2013-3-28,44,33,23,37,29,23,99,85,65,0.00,40.00,10,4,14,0.00
2013-3-29,51,40,29,43,35,28,99,83,67,0.00,40.00,14,6,18,0.00
2013-3-30,54,44,36,50,41,34,99,86,73,0.00,40.00,17,9,22,0.00
2013-3-31,40,34,26,36,26,16,99,77,48,0.00,40.00,22,15,35,0.00